Time,TemperatureF,DewpointF,PressureIn,WindDirection,WindDirectionDegrees,WindSpeedMPH,WindSpeedGustMPH,Humidity,HourlyPrecipIn,Conditions,Clouds,dailyrainin,SoftwareType,DateUTC
2013-02-02 00:01:00,79.1,74.2,30.03,NE,50,8.1,8.1,85,0.00,CLR,,0.00,WeatherDisplay:10.37,2013-02-02 06:01:00,
2013-02-02 00:06:00,79.2,74.6,30.03,North,359,11.5,11.5,86,0.00,CLR,,0.00,WeatherDisplay:10.37,2013-02-02 06:06:00,
2013-02-02 00:11:00,79.4,74.8,30.03,ENE,57,10.0,10.0,86,0.00,CLR,,0.00,WeatherDisplay:10.37,2013-02-02 06:11:00,
2013-02-02 00:16:00,79.4,75.2,30.03,ENE,78,8.1,8.1,87,0.00,CLR,,0.00,WeatherDisplay:10.37,2013-02-02 06:16:00,
2013-02-02 00:21:00,79.1,74.9,30.03,East,93,4.6,4.6,87,0.00,CLR,,0.00,WeatherDisplay:10.37,2013-02-02 06:21:00,
2013-02-02 00:26:00,78.9,74.7,30.02,NE,48,10.4,10.4,87,0.00,CLR,,0.00,WeatherDisplay:10.37,2013-02-02 06:26:00,
2013-02-02 00:31:00,78.8,74.6,30.02,NE,46,5.0,5.0,87,0.00,CLR,,0.00,WeatherDisplay:10.37,2013-02-02 06:31:00,
2013-02-02 00:36:00,78.7,74.2,30.02,ENE,74,5.0,5.0,86,0.00,CLR,,0.00,WeatherDisplay:10.37,2013-02-02 06:36:00,
2013-02-02 00:41:00,78.6,74.1,30.01,NNE,30,11.5,11.5,86,0.00,CLR,,0.00,WeatherDisplay:10.37,2013-02-02 06:41:00,
2013-02-02 00:46:00,78.7,74.5,30.01,NE,51,9.2,9.2,87,0.00,CLR,,0.00,WeatherDisplay:10.37,2013-02-02 06:46:00,
2013-02-02 00:51:00,78.7,74.5,30.01,ENE,67,11.5,11.5,87,0.00,CLR,,0.00,WeatherDisplay:10.37,2013-02-02 06:51:00,
2013-02-02 00:56:00,78.6,74.4,30.01,NE,46,8.1,8.1,87,0.00,CLR,,0.00,WeatherDisplay:10.37,2013-02-02 06:56:00,
2013-02-02 01:01:00,78.4,74.2,30.01,ENE,63,11.5,11.5,87,0.00,CLR,,0.00,WeatherDisplay:10.37,2013-02-02 07:01:00,
2013-02-02 01:06:00,78.3,74.1,30.01,NE,39,9.2,9.2,87,0.00,CLR,,0.00,WeatherDisplay:10.37,2013-02-02 07:06:00,
2013-02-02 01:11:00,78.1,73.9,30.01,North,354,11.5,11.5,87,0.00,CLR,,0.00,WeatherDisplay:10.37,2013-02-02 07:11:00,
2013-02-02 01:16:00,77.9,73.4,30.00,North,9,8.0,8.0,86,0.00,CLR,,0.00,WeatherDisplay:10.37,2013-02-02 07:16:00,
2013-02-02 01:21:00,77.8,73.3,30.00,NE,53,6.9,6.9,86,0.00,CLR,,0.00,WeatherDisplay:10.37,2013-02-02 07:21:00,
2013-02-02 01:26:00,77.8,73.3,30.00,ENE,68,10.4,10.4,86,0.00,CLR,,0.00,WeatherDisplay:10.37,2013-02-02 07:26:00,
2013-02-02 01:31:00,77.8,72.9,30.00,ESE,109,6.9,6.9,85,0.00,CLR,,0.00,WeatherDisplay:10.37,2013-02-02 07:31:00,
2013-02-02 01:36:00,77.9,73.0,30.00,East,94,10.4,10.4,85,0.00,CLR,,0.00,WeatherDisplay:10.37,2013-02-02 07:36:00,
2013-02-02 01:41:00,78.0,73.5,30.00,NNE,29,9.0,9.0,86,0.00,CLR,,0.00,WeatherDisplay:10.37,2013-02-02 07:41:00,
2013-02-02 01:46:00,78.1,73.2,30.00,ENE,74,10.4,10.4,85,0.00,CLR,,0.00,WeatherDisplay:10.37,2013-02-02 07:46:00,
2013-02-02 01:51:00,78.1,73.2,30.00,ENE,71,10.4,10.4,85,0.00,CLR,,0.00,WeatherDisplay:10.37,2013-02-02 07:51:00,
2013-02-02 01:56:00,78.1,73.6,30.00,ENE,62,6.9,6.9,86,0.00,CLR,,0.00,WeatherDisplay:10.37,2013-02-02 07:56:00,
2013-02-02 02:01:00,78.1,73.2,30.00,ENE,61,11.5,11.5,85,0.00,CLR,,0.00,WeatherDisplay:10.37,2013-02-02 08:01:00,
2013-02-02 02:06:00,78.1,73.2,30.00,ENE,72,11.5,11.5,85,0.00,CLR,,0.00,WeatherDisplay:10.37,2013-02-02 08:06:00,
2013-02-02 02:11:00,78.2,73.0,30.00,NE,55,8.1,8.1,84,0.00,CLR,,0.00,WeatherDisplay:10.37,2013-02-02 08:11:00,
2013-02-02 02:16:00,78.3,73.1,30.00,ENE,65,8.1,8.1,84,0.00,CLR,,0.00,WeatherDisplay:10.37,2013-02-02 08:16:00,
2013-02-02 02:21:00,78.3,73.1,30.00,NE,49,9.2,9.2,84,0.00,CLR,,0.00,WeatherDisplay:10.37,2013-02-02 08:21:00,
2013-02-02 02:26:00,78.3,73.4,30.00,NE,46,9.2,9.2,85,0.00,CLR,,0.00,WeatherDisplay:10.37,2013-02-02 08:26:00,
2013-02-02 02:31:00,78.3,73.1,30.00,ENE,67,8.1,8.1,84,0.00,CLR,,0.00,WeatherDisplay:10.37,2013-02-02 08:31:00,
2013-02-02 02:36:00,78.3,73.4,29.99,NE,56,6.0,6.0,85,0.00,CLR,,0.00,WeatherDisplay:10.37,2013-02-02 08:36:00,
2013-02-02 02:41:00,78.3,73.8,30.00,ENE,62,15.0,15.0,86,0.00,CLR,,0.00,WeatherDisplay:10.37,2013-02-02 08:41:00,
2013-02-02 02:46:00,77.9,73.4,30.00,ENE,58,8.0,8.0,86,0.00,CLR,,0.00,WeatherDisplay:10.37,2013-02-02 08:46:00,
2013-02-02 02:51:00,77.2,73.4,30.00,ENE,61,6.9,6.9,88,0.00,CLR,,0.00,WeatherDisplay:10.37,2013-02-02 08:51:00,
2013-02-02 02:56:00,76.6,72.8,30.00,ENE,58,8.1,8.1,88,0.00,CLR,,0.00,WeatherDisplay:10.37,2013-02-02 08:56:00,
2013-02-02 03:01:00,76.0,71.8,30.00,NE,49,3.5,3.5,87,0.00,CLR,,0.00,WeatherDisplay:10.37,2013-02-02 09:01:00,
2013-02-02 03:06:00,75.5,71.0,30.00,NNE,14,4.6,4.6,86,0.00,CLR,,0.00,WeatherDisplay:10.37,2013-02-02 09:06:00,
2013-02-02 03:11:00,75.4,71.6,30.00,NNW,335,8.1,8.1,88,0.00,CLR,,0.00,WeatherDisplay:10.37,2013-02-02 09:11:00,
2013-02-02 03:16:00,75.3,72.2,30.00,ENE,61,7.0,7.0,90,0.00,CLR,,0.00,WeatherDisplay:10.37,2013-02-02 09:16:00,
2013-02-02 03:21:00,75.0,72.2,30.00,NE,43,8.1,8.1,91,0.01,RA,,0.01,WeatherDisplay:10.37,2013-02-02 09:21:00,
2013-02-02 03:26:00,74.9,72.1,30.01,ENE,60,11.5,11.5,91,0.01,RA,,0.01,WeatherDisplay:10.37,2013-02-02 09:26:00,
2013-02-02 03:31:00,74.5,71.7,30.01,East,80,5.8,5.8,91,0.02,RA,,0.02,WeatherDisplay:10.37,2013-02-02 09:31:00,
2013-02-02 03:36:00,74.3,71.8,30.00,NE,42,3.5,3.5,92,0.02,RA,,0.02,WeatherDisplay:10.37,2013-02-02 09:36:00,
2013-02-02 03:41:00,74.2,71.7,30.00,NW,322,3.5,3.5,92,0.03,RA,,0.03,WeatherDisplay:10.37,2013-02-02 09:41:00,
2013-02-02 03:46:00,74.0,71.5,30.00,NW,325,1.1,0.0,92,0.03,RA,,0.03,WeatherDisplay:10.37,2013-02-02 09:46:00,
2013-02-02 03:51:00,73.9,71.7,30.00,North,353,0.0,0.0,93,0.03,,,0.03,WeatherDisplay:10.37,2013-02-02 09:51:00,
2013-02-02 03:56:00,74.0,71.8,30.00,NE,49,3.5,3.5,93,0.03,CLR,,0.03,WeatherDisplay:10.37,2013-02-02 09:56:00,
2013-02-02 04:02:00,74.1,71.9,30.00,ENE,72,4.0,4.0,93,0.03,CLR,,0.03,WeatherDisplay:10.37,2013-02-02 10:02:00,
2013-02-02 04:07:00,74.4,72.2,30.00,NE,37,3.5,3.5,93,0.03,CLR,,0.03,WeatherDisplay:10.37,2013-02-02 10:07:00,
2013-02-02 04:12:00,74.6,72.1,30.00,ENE,74,5.8,5.8,92,0.03,CLR,,0.03,WeatherDisplay:10.37,2013-02-02 10:12:00,
2013-02-02 04:17:00,74.8,72.3,30.00,NE,53,3.5,3.5,92,0.03,CLR,,0.03,WeatherDisplay:10.37,2013-02-02 10:17:00,
2013-02-02 04:22:00,74.9,72.4,30.00,ENE,75,3.5,3.5,92,0.02,CLR,,0.03,WeatherDisplay:10.37,2013-02-02 10:22:00,
2013-02-02 04:27:00,75.0,72.5,30.00,ENE,69,4.6,4.6,92,0.02,CLR,,0.03,WeatherDisplay:10.37,2013-02-02 10:27:00,
2013-02-02 04:32:00,75.2,72.7,30.00,ENE,67,3.5,3.5,92,0.01,CLR,,0.03,WeatherDisplay:10.37,2013-02-02 10:32:00,
2013-02-02 04:37:00,75.3,72.5,30.00,ENE,76,4.6,4.6,91,0.01,CLR,,0.03,WeatherDisplay:10.37,2013-02-02 10:37:00,
2013-02-02 04:42:00,75.5,72.4,30.00,ENE,59,4.6,4.6,90,0.00,CLR,,0.03,WeatherDisplay:10.37,2013-02-02 10:42:00,
2013-02-02 04:47:00,75.9,73.1,30.00,NE,53,10.4,10.4,91,0.00,CLR,,0.03,WeatherDisplay:10.37,2013-02-02 10:47:00,
2013-02-02 04:52:00,75.5,72.0,30.00,East,88,8.1,8.1,89,0.00,CLR,,0.03,WeatherDisplay:10.37,2013-02-02 10:52:00,
2013-02-02 04:57:00,75.2,71.7,30.00,East,94,8.1,8.1,89,0.00,CLR,,0.03,WeatherDisplay:10.37,2013-02-02 10:57:00,
2013-02-02 05:07:00,74.9,71.4,30.01,ENE,60,3.5,0.0,89,0.00,CLR,,0.03,WeatherDisplay:10.37,2013-02-02 11:07:00,
2013-02-02 05:12:00,74.8,71.7,30.01,ENE,61,2.3,2.3,90,0.00,RA,,0.03,WeatherDisplay:10.37,2013-02-02 11:12:00,
2013-02-02 05:17:00,74.7,71.6,30.01,ENE,62,2.3,2.3,90,0.00,RA,,0.03,WeatherDisplay:10.37,2013-02-02 11:17:00,
2013-02-02 05:22:00,74.7,71.6,30.01,NNE,26,2.3,2.3,90,0.00,CLR,,0.03,WeatherDisplay:10.37,2013-02-02 11:22:00,
2013-02-02 05:27:00,74.7,71.6,30.01,NNE,18,1.1,1.1,90,0.00,CLR,,0.03,WeatherDisplay:10.37,2013-02-02 11:27:00,
2013-02-02 05:32:00,74.7,71.6,30.02,NNE,21,3.5,3.5,90,0.00,CLR,,0.03,WeatherDisplay:10.37,2013-02-02 11:32:00,
2013-02-02 05:37:00,74.9,72.1,30.02,ENE,67,2.3,2.3,91,0.00,CLR,,0.03,WeatherDisplay:10.37,2013-02-02 11:37:00,
2013-02-02 05:42:00,75.3,72.2,30.02,NE,37,7.0,7.0,90,0.00,CLR,,0.03,WeatherDisplay:10.37,2013-02-02 11:42:00,
2013-02-02 05:47:00,75.2,72.1,30.02,East,79,6.9,6.9,90,0.01,RA,,0.04,WeatherDisplay:10.37,2013-02-02 11:47:00,
2013-02-02 05:52:00,75.3,72.5,30.03,ENE,66,4.6,4.6,91,0.01,RA,,0.04,WeatherDisplay:10.37,2013-02-02 11:52:00,
2013-02-02 05:57:00,75.1,72.6,30.04,NE,35,13.8,13.8,92,0.01,CLR,,0.05,WeatherDisplay:10.37,2013-02-02 11:57:00,
2013-02-02 06:02:00,73.5,70.7,30.04,ESE,114,9.2,9.2,91,0.15,RA,,0.18,WeatherDisplay:10.37,2013-02-02 12:02:00,
2013-02-02 06:07:00,72.8,70.3,30.04,ENE,68,13.8,13.8,92,0.17,RA,,0.20,WeatherDisplay:10.37,2013-02-02 12:07:00,
2013-02-02 06:12:00,72.9,70.4,30.04,SSE,159,9.2,9.2,92,0.17,RA,,0.20,WeatherDisplay:10.37,2013-02-02 12:12:00,
2013-02-02 06:17:00,72.9,70.4,30.04,ESE,104,3.5,3.5,92,0.18,RA,,0.21,WeatherDisplay:10.37,2013-02-02 12:17:00,
2013-02-02 06:22:00,72.9,70.1,30.04,East,83,3.5,3.5,91,0.18,RA,,0.21,WeatherDisplay:10.37,2013-02-02 12:22:00,
2013-02-02 06:27:00,72.7,69.9,30.04,ENE,72,3.0,3.0,91,0.18,CLR,,0.21,WeatherDisplay:10.37,2013-02-02 12:27:00,
2013-02-02 06:32:00,72.8,70.0,30.04,ENE,63,3.5,3.5,91,0.18,CLR,,0.21,WeatherDisplay:10.37,2013-02-02 12:32:00,
2013-02-02 06:37:00,73.2,70.1,30.03,ESE,111,3.5,3.5,90,0.18,CLR,,0.21,WeatherDisplay:10.37,2013-02-02 12:37:00,
2013-02-02 06:42:00,73.7,70.6,30.03,ENE,65,3.5,3.5,90,0.18,CLR,,0.21,WeatherDisplay:10.37,2013-02-02 12:42:00,
2013-02-02 06:47:00,73.9,70.8,30.04,ENE,60,2.3,2.3,90,0.17,CLR,,0.21,WeatherDisplay:10.37,2013-02-02 12:47:00,
2013-02-02 06:52:00,74.0,70.9,30.04,NE,54,5.0,5.0,90,0.17,CLR,,0.21,WeatherDisplay:10.37,2013-02-02 12:52:00,
2013-02-02 06:57:00,74.5,71.7,30.04,ENE,64,3.5,3.5,91,0.16,CLR,,0.21,WeatherDisplay:10.37,2013-02-02 12:57:00,
2013-02-02 07:02:00,74.8,71.7,30.04,NE,53,3.5,3.5,90,0.03,CLR,,0.21,WeatherDisplay:10.37,2013-02-02 13:02:00,
2013-02-02 07:07:00,75.0,71.9,30.04,NE,50,4.0,4.0,90,0.01,CLR,,0.21,WeatherDisplay:10.37,2013-02-02 13:07:00,
2013-02-02 07:12:00,75.3,72.2,30.04,ENE,68,3.5,3.5,90,0.01,CLR,,0.21,WeatherDisplay:10.37,2013-02-02 13:12:00,
2013-02-02 07:17:00,75.8,72.7,30.04,East,81,3.5,3.5,90,0.00,CLR,,0.21,WeatherDisplay:10.37,2013-02-02 13:17:00,
2013-02-02 07:22:00,76.0,72.9,30.04,ENE,70,4.6,4.6,90,0.00,CLR,,0.21,WeatherDisplay:10.37,2013-02-02 13:22:00,
2013-02-02 07:27:00,76.1,73.0,30.04,ENE,72,2.3,2.3,90,0.00,CLR,,0.21,WeatherDisplay:10.37,2013-02-02 13:27:00,
2013-02-02 07:32:00,76.3,72.8,30.05,NE,46,2.3,2.3,89,0.00,CLR,,0.21,WeatherDisplay:10.37,2013-02-02 13:32:00,
2013-02-02 07:37:00,76.5,72.7,30.05,NE,56,5.0,5.0,88,0.00,CLR,,0.21,WeatherDisplay:10.37,2013-02-02 13:37:00,
2013-02-02 07:42:00,76.7,72.5,30.05,ENE,70,4.6,4.6,87,0.00,CLR,,0.21,WeatherDisplay:10.37,2013-02-02 13:42:00,
2013-02-02 07:47:00,76.9,72.4,30.05,ENE,60,4.6,4.6,86,0.00,CLR,,0.21,WeatherDisplay:10.37,2013-02-02 13:47:00,
2013-02-02 07:52:00,77.2,72.0,30.05,NNE,29,4.0,4.0,84,0.00,CLR,,0.21,WeatherDisplay:10.37,2013-02-02 13:52:00,
2013-02-02 07:57:00,77.4,72.2,30.05,ENE,68,6.9,6.9,84,0.00,CLR,,0.21,WeatherDisplay:10.37,2013-02-02 13:57:00,
2013-02-02 08:02:00,77.6,72.4,30.05,NE,56,5.8,5.8,84,0.00,CLR,,0.21,WeatherDisplay:10.37,2013-02-02 14:02:00,
2013-02-02 08:07:00,77.8,72.6,30.06,ENE,70,5.8,5.8,84,0.00,CLR,,0.21,WeatherDisplay:10.37,2013-02-02 14:07:00,
2013-02-02 08:12:00,77.9,72.7,30.06,ENE,72,4.0,4.0,84,0.00,CLR,,0.21,WeatherDisplay:10.37,2013-02-02 14:12:00,
2013-02-02 08:17:00,78.4,73.2,30.06,ENE,62,6.9,6.9,84,0.00,CLR,,0.21,WeatherDisplay:10.37,2013-02-02 14:17:00,
2013-02-02 08:22:00,79.0,73.4,30.06,ENE,69,11.5,11.5,83,0.00,CLR,,0.21,WeatherDisplay:10.37,2013-02-02 14:22:00,
2013-02-02 08:27:00,79.3,73.3,30.06,ENE,63,9.0,9.0,82,0.00,CLR,,0.21,WeatherDisplay:10.37,2013-02-02 14:27:00,
2013-02-02 08:32:00,79.5,73.5,30.06,East,89,9.2,9.2,82,0.00,CLR,,0.21,WeatherDisplay:10.37,2013-02-02 14:32:00,
2013-02-02 08:37:00,79.8,73.8,30.06,ENE,63,6.9,6.9,82,0.00,CLR,,0.21,WeatherDisplay:10.37,2013-02-02 14:37:00,
2013-02-02 08:42:00,79.8,73.1,30.06,ENE,72,10.4,10.4,80,0.00,CLR,,0.21,WeatherDisplay:10.37,2013-02-02 14:42:00,
2013-02-02 08:47:00,79.3,73.3,30.06,NE,41,5.8,5.8,82,0.00,CLR,,0.21,WeatherDisplay:10.37,2013-02-02 14:47:00,
2013-02-02 08:52:00,79.0,73.0,30.06,NE,49,3.5,3.5,82,0.00,CLR,,0.21,WeatherDisplay:10.37,2013-02-02 14:52:00,
2013-02-02 08:57:00,78.8,72.8,30.06,ENE,70,3.5,3.5,82,0.00,CLR,,0.21,WeatherDisplay:10.37,2013-02-02 14:57:00,
2013-02-02 09:02:00,78.8,72.8,30.06,North,356,3.5,3.5,82,0.00,CLR,,0.21,WeatherDisplay:10.37,2013-02-02 15:02:00,
2013-02-02 09:07:00,78.9,72.9,30.06,ESE,103,6.9,6.9,82,0.00,CLR,,0.21,WeatherDisplay:10.37,2013-02-02 15:07:00,
2013-02-02 09:12:00,79.0,72.3,30.06,ENE,62,5.8,5.8,80,0.00,CLR,,0.21,WeatherDisplay:10.37,2013-02-02 15:12:00,
2013-02-02 09:17:00,79.0,72.3,30.06,ENE,62,5.8,5.8,80,0.00,CLR,,0.21,WeatherDisplay:10.37,2013-02-02 15:17:00,
2013-02-02 09:22:00,78.9,72.2,30.06,NE,53,5.8,5.8,80,0.00,CLR,,0.21,WeatherDisplay:10.37,2013-02-02 15:22:00,
2013-02-02 09:27:00,78.8,72.1,30.06,NE,56,5.8,5.8,80,0.00,CLR,,0.21,WeatherDisplay:10.37,2013-02-02 15:27:00,
2013-02-02 09:32:00,78.8,72.5,30.06,ENE,75,7.0,7.0,81,0.00,CLR,,0.21,WeatherDisplay:10.37,2013-02-02 15:32:00,
2013-02-02 09:37:00,78.8,72.8,30.06,ENE,59,5.8,5.8,82,0.00,CLR,,0.21,WeatherDisplay:10.37,2013-02-02 15:37:00,
2013-02-02 09:42:00,78.9,72.9,30.06,WNW,300,3.5,3.5,82,0.00,CLR,,0.21,WeatherDisplay:10.37,2013-02-02 15:42:00,
2013-02-02 09:47:00,78.9,72.9,30.05,NE,44,7.0,7.0,82,0.00,CLR,,0.21,WeatherDisplay:10.37,2013-02-02 15:47:00,
2013-02-02 09:52:00,78.7,72.0,30.06,ENE,70,6.9,6.9,80,0.00,CLR,,0.21,WeatherDisplay:10.37,2013-02-02 15:52:00,
2013-02-02 09:57:00,78.8,72.5,30.06,ENE,75,4.6,4.6,81,0.00,CLR,,0.21,WeatherDisplay:10.37,2013-02-02 15:57:00,
2013-02-02 10:02:00,79.0,71.9,30.06,ENE,61,6.9,6.9,79,0.00,CLR,,0.21,WeatherDisplay:10.37,2013-02-02 16:02:00,
2013-02-02 10:07:00,79.4,71.9,30.05,East,84,6.0,6.0,78,0.00,CLR,,0.21,WeatherDisplay:10.37,2013-02-02 16:07:00,
2013-02-02 10:12:00,79.7,71.8,30.05,NNE,12,6.9,6.9,77,0.00,CLR,,0.21,WeatherDisplay:10.37,2013-02-02 16:12:00,
2013-02-02 10:18:00,80.0,72.5,30.05,NE,53,9.2,9.2,78,0.00,CLR,,0.21,WeatherDisplay:10.37,2013-02-02 16:18:00,
2013-02-02 10:23:00,80.1,73.0,30.05,NE,47,8.1,8.1,79,0.00,CLR,,0.21,WeatherDisplay:10.37,2013-02-02 16:23:00,
2013-02-02 10:28:00,80.1,73.4,30.05,ENE,59,9.2,9.2,80,0.00,CLR,,0.21,WeatherDisplay:10.37,2013-02-02 16:28:00,
2013-02-02 10:33:00,80.4,73.3,30.05,NE,51,9.2,9.2,79,0.00,CLR,,0.21,WeatherDisplay:10.37,2013-02-02 16:33:00,
2013-02-02 10:38:00,80.6,73.9,30.05,ENE,61,9.2,9.2,80,0.00,CLR,,0.21,WeatherDisplay:10.37,2013-02-02 16:38:00,
2013-02-02 10:43:00,80.4,74.0,30.05,ENE,74,8.1,8.1,81,0.00,CLR,,0.21,WeatherDisplay:10.37,2013-02-02 16:43:00,
2013-02-02 10:48:00,80.6,73.9,30.04,ENE,68,5.8,8.1,80,0.00,CLR,,0.21,WeatherDisplay:10.37,2013-02-02 16:48:00,
2013-02-02 10:53:00,81.2,74.8,30.04,ENE,62,8.1,8.1,81,0.00,CLR,,0.21,WeatherDisplay:10.37,2013-02-02 16:53:00,
2013-02-02 10:58:00,81.6,74.8,30.04,NE,56,9.2,9.2,80,0.00,CLR,,0.21,WeatherDisplay:10.37,2013-02-02 16:58:00,
2013-02-02 11:03:00,81.3,74.2,30.04,NE,50,10.0,10.0,79,0.00,CLR,,0.21,WeatherDisplay:10.37,2013-02-02 17:03:00,
2013-02-02 11:08:00,81.4,74.6,30.03,NE,41,6.9,6.9,80,0.00,CLR,,0.21,WeatherDisplay:10.37,2013-02-02 17:08:00,
2013-02-02 11:13:00,80.8,74.0,30.03,ENE,61,6.9,6.9,80,0.00,CLR,,0.21,WeatherDisplay:10.37,2013-02-02 17:13:00,
2013-02-02 11:18:00,80.6,73.9,30.03,NNE,22,9.2,9.2,80,0.00,CLR,,0.21,WeatherDisplay:10.37,2013-02-02 17:18:00,
2013-02-02 11:23:00,81.3,74.5,30.03,ENE,72,7.0,7.0,80,0.00,CLR,,0.21,WeatherDisplay:10.37,2013-02-02 17:23:00,
2013-02-02 11:28:00,82.1,74.9,30.03,NE,44,5.8,5.8,79,0.00,CLR,,0.21,WeatherDisplay:10.37,2013-02-02 17:28:00,
2013-02-02 11:33:00,82.6,75.4,30.02,ENE,70,5.8,5.8,79,0.00,CLR,,0.21,WeatherDisplay:10.37,2013-02-02 17:33:00,
2013-02-02 11:38:00,82.3,75.1,30.02,NE,39,6.0,6.0,79,0.00,CLR,,0.21,WeatherDisplay:10.37,2013-02-02 17:38:00,
2013-02-02 11:43:00,81.9,74.4,30.02,ENE,68,5.8,5.8,78,0.00,CLR,,0.21,WeatherDisplay:10.37,2013-02-02 17:43:00,
2013-02-02 11:48:00,81.9,74.7,30.02,NE,36,9.2,9.2,79,0.00,CLR,,0.21,WeatherDisplay:10.37,2013-02-02 17:48:00,
2013-02-02 11:53:00,82.5,75.3,30.01,ENE,61,6.0,6.0,79,0.00,CLR,,0.21,WeatherDisplay:10.37,2013-02-02 17:53:00,
2013-02-02 11:58:00,82.1,74.9,30.01,North,8,10.4,10.4,79,0.00,CLR,,0.21,WeatherDisplay:10.37,2013-02-02 17:58:00,
2013-02-02 12:03:00,82.5,74.9,30.01,ENE,68,4.6,4.6,78,0.00,CLR,,0.21,WeatherDisplay:10.37,2013-02-02 18:03:00,
2013-02-02 12:08:00,82.5,74.9,30.01,ENE,65,10.0,10.0,78,0.00,CLR,,0.21,WeatherDisplay:10.37,2013-02-02 18:08:00,
2013-02-02 12:13:00,82.7,74.4,30.00,ENE,63,10.0,10.0,76,0.00,CLR,,0.21,WeatherDisplay:10.37,2013-02-02 18:13:00,
2013-02-02 12:18:00,82.7,75.1,30.00,East,86,8.1,8.1,78,0.00,CLR,,0.21,WeatherDisplay:10.37,2013-02-02 18:18:00,
2013-02-02 12:23:00,83.0,74.6,30.00,ENE,72,9.2,9.2,76,0.00,CLR,,0.21,WeatherDisplay:10.37,2013-02-02 18:23:00,
2013-02-02 12:28:00,83.5,74.7,30.00,ENE,71,10.4,10.4,75,0.00,CLR,,0.21,WeatherDisplay:10.37,2013-02-02 18:28:00,
2013-02-02 12:33:00,83.4,75.0,29.99,NE,51,4.0,4.0,76,0.00,CLR,,0.21,WeatherDisplay:10.37,2013-02-02 18:33:00,
2013-02-02 12:38:00,83.5,74.7,29.99,NE,49,9.2,9.2,75,0.00,CLR,,0.21,WeatherDisplay:10.37,2013-02-02 18:38:00,
2013-02-02 12:43:00,83.6,74.4,29.99,East,86,6.9,6.9,74,0.00,CLR,,0.21,WeatherDisplay:10.37,2013-02-02 18:43:00,
2013-02-02 12:48:00,83.6,74.0,29.99,ENE,68,11.5,11.5,73,0.00,CLR,,0.21,WeatherDisplay:10.37,2013-02-02 18:48:00,
2013-02-02 12:53:00,83.2,74.4,29.99,NNE,25,8.1,8.1,75,0.00,CLR,,0.21,WeatherDisplay:10.37,2013-02-02 18:53:00,
2013-02-02 12:58:00,83.3,74.5,29.98,NE,54,10.4,10.4,75,0.00,CLR,,0.21,WeatherDisplay:10.37,2013-02-02 18:58:00,
2013-02-02 13:03:00,83.3,74.1,29.98,East,92,10.4,10.4,74,0.00,CLR,,0.21,WeatherDisplay:10.37,2013-02-02 19:03:00,
2013-02-02 13:08:00,83.4,74.6,29.98,NNE,18,8.1,8.1,75,0.00,CLR,,0.21,WeatherDisplay:10.37,2013-02-02 19:08:00,
2013-02-02 13:13:00,83.7,74.9,29.98,NNE,15,13.8,13.8,75,0.00,CLR,,0.21,WeatherDisplay:10.37,2013-02-02 19:13:00,
2013-02-02 13:18:00,83.2,74.8,29.97,NE,43,12.7,12.7,76,0.00,CLR,,0.21,WeatherDisplay:10.37,2013-02-02 19:18:00,
2013-02-02 13:23:00,83.3,74.9,29.98,ENE,70,13.8,13.8,76,0.00,CLR,,0.21,WeatherDisplay:10.37,2013-02-02 19:23:00,
2013-02-02 13:28:00,83.6,74.8,29.97,NNE,29,11.5,11.5,75,0.00,CLR,,0.21,WeatherDisplay:10.37,2013-02-02 19:28:00,
2013-02-02 13:33:00,83.7,74.5,29.97,NE,52,15.0,15.0,74,0.00,CLR,,0.21,WeatherDisplay:10.37,2013-02-02 19:33:00,
2013-02-02 13:38:00,83.7,74.5,29.97,ENE,64,13.0,13.0,74,0.00,CLR,,0.21,WeatherDisplay:10.37,2013-02-02 19:38:00,
2013-02-02 13:43:00,83.2,74.8,29.97,ESE,105,12.7,12.7,76,0.00,CLR,,0.21,WeatherDisplay:10.37,2013-02-02 19:43:00,
2013-02-02 13:48:00,83.2,74.4,29.96,NNE,13,13.8,13.8,75,0.00,CLR,,0.21,WeatherDisplay:10.37,2013-02-02 19:48:00,
2013-02-02 13:53:00,83.4,74.6,29.96,ENE,57,13.8,13.8,75,0.00,CLR,,0.21,WeatherDisplay:10.37,2013-02-02 19:53:00,
2013-02-02 13:58:00,83.7,74.9,29.96,ENE,59,8.0,8.0,75,0.00,CLR,,0.21,WeatherDisplay:10.37,2013-02-02 19:58:00,
2013-02-02 14:03:00,83.5,73.9,29.96,NE,53,12.7,12.7,73,0.00,CLR,,0.21,WeatherDisplay:10.37,2013-02-02 20:03:00,
2013-02-02 14:08:00,83.2,74.0,29.96,East,79,11.5,11.5,74,0.00,CLR,,0.21,WeatherDisplay:10.37,2013-02-02 20:08:00,
2013-02-02 14:13:00,83.5,75.1,29.95,East,86,8.1,8.1,76,0.00,CLR,,0.21,WeatherDisplay:10.37,2013-02-02 20:13:00,
2013-02-02 14:18:00,83.6,74.8,29.95,East,100,11.5,11.5,75,0.00,CLR,,0.21,WeatherDisplay:10.37,2013-02-02 20:18:00,
2013-02-02 14:23:00,83.5,74.3,29.95,ENE,68,13.8,13.8,74,0.00,CLR,,0.21,WeatherDisplay:10.37,2013-02-02 20:23:00,
2013-02-02 14:28:00,83.3,74.9,29.95,North,8,6.9,6.9,76,0.00,CLR,,0.21,WeatherDisplay:10.37,2013-02-02 20:28:00,
2013-02-02 14:33:00,83.4,75.0,29.95,ENE,60,18.4,18.4,76,0.00,CLR,,0.21,WeatherDisplay:10.37,2013-02-02 20:33:00,
2013-02-02 14:38:00,83.7,75.3,29.95,ENE,72,9.2,9.2,76,0.00,CLR,,0.21,WeatherDisplay:10.37,2013-02-02 20:38:00,
2013-02-02 14:43:00,83.6,74.4,29.95,NNE,13,15.0,15.0,74,0.00,CLR,,0.21,WeatherDisplay:10.37,2013-02-02 20:43:00,
2013-02-02 14:48:00,83.3,74.9,29.95,NE,40,11.5,11.5,76,0.00,CLR,,0.21,WeatherDisplay:10.37,2013-02-02 20:48:00,
2013-02-02 14:53:00,83.2,74.8,29.95,SE,132,17.3,17.3,76,0.00,CLR,,0.21,WeatherDisplay:10.37,2013-02-02 20:53:00,
2013-02-02 14:58:00,83.4,75.0,29.95,NNE,29,11.5,11.5,76,0.00,CLR,,0.21,WeatherDisplay:10.37,2013-02-02 20:58:00,
2013-02-02 15:03:00,83.3,74.5,29.95,ENE,63,11.5,11.5,75,0.00,CLR,,0.21,WeatherDisplay:10.37,2013-02-02 21:03:00,
2013-02-02 15:08:00,83.0,74.6,29.95,ENE,63,11.5,11.5,76,0.00,CLR,,0.21,WeatherDisplay:10.37,2013-02-02 21:08:00,
2013-02-02 15:13:00,83.0,74.3,29.95,NNE,15,13.8,13.8,75,0.00,CLR,,0.21,WeatherDisplay:10.37,2013-02-02 21:13:00,
2013-02-02 15:18:00,82.8,74.5,29.95,NE,44,10.4,10.4,76,0.00,CLR,,0.21,WeatherDisplay:10.37,2013-02-02 21:18:00,
2013-02-02 15:23:00,82.9,74.6,29.95,NW,316,11.5,11.5,76,0.00,CLR,,0.21,WeatherDisplay:10.37,2013-02-02 21:23:00,
2013-02-02 15:28:00,83.1,74.4,29.95,ENE,64,9.2,9.2,75,0.00,CLR,,0.21,WeatherDisplay:10.37,2013-02-02 21:28:00,
2013-02-02 15:34:00,83.0,74.3,29.95,East,84,9.2,9.2,75,0.00,CLR,,0.21,WeatherDisplay:10.37,2013-02-02 21:34:00,
2013-02-02 15:39:00,83.1,74.4,29.95,ENE,63,7.0,7.0,75,0.00,CLR,,0.21,WeatherDisplay:10.37,2013-02-02 21:39:00,
2013-02-02 15:44:00,82.9,74.2,29.95,NE,50,12.7,12.7,75,0.00,CLR,,0.21,WeatherDisplay:10.37,2013-02-02 21:44:00,
2013-02-02 15:49:00,82.8,74.1,29.95,ENE,63,13.8,13.8,75,0.00,CLR,,0.21,WeatherDisplay:10.37,2013-02-02 21:49:00,
2013-02-02 15:54:00,82.6,74.3,29.95,NNE,20,11.5,11.5,76,0.00,CLR,,0.21,WeatherDisplay:10.37,2013-02-02 21:54:00,
2013-02-02 15:59:00,82.6,75.0,29.95,North,8,10.0,10.0,78,0.00,CLR,,0.21,WeatherDisplay:10.37,2013-02-02 21:59:00,
2013-02-02 16:04:00,82.5,74.9,29.95,NNE,26,11.5,11.5,78,0.00,CLR,,0.21,WeatherDisplay:10.37,2013-02-02 22:04:00,
2013-02-02 16:09:00,82.7,75.1,29.95,NNE,26,7.0,7.0,78,0.00,CLR,,0.21,WeatherDisplay:10.37,2013-02-02 22:09:00,
2013-02-02 16:14:00,82.4,74.8,29.95,NNE,15,10.4,10.4,78,0.00,CLR,,0.21,WeatherDisplay:10.37,2013-02-02 22:14:00,
2013-02-02 16:19:00,82.3,74.7,29.95,ENE,69,9.2,9.2,78,0.00,CLR,,0.21,WeatherDisplay:10.37,2013-02-02 22:19:00,
2013-02-02 16:24:00,82.3,74.7,29.95,NE,44,11.5,11.5,78,0.00,CLR,,0.21,WeatherDisplay:10.37,2013-02-02 22:24:00,
2013-02-02 16:29:00,82.2,75.0,29.96,NW,311,6.9,6.9,79,0.00,CLR,,0.21,WeatherDisplay:10.37,2013-02-02 22:29:00,
2013-02-02 16:34:00,81.7,74.9,29.96,East,91,6.9,6.9,80,0.00,CLR,,0.21,WeatherDisplay:10.37,2013-02-02 22:34:00,
2013-02-02 16:39:00,81.3,74.9,29.96,NNE,29,8.1,8.1,81,0.00,CLR,,0.21,WeatherDisplay:10.37,2013-02-02 22:39:00,
2013-02-02 16:44:00,81.4,75.0,29.96,NE,51,4.6,4.6,81,0.00,CLR,,0.21,WeatherDisplay:10.37,2013-02-02 22:44:00,
2013-02-02 16:49:00,81.5,75.1,29.96,ENE,65,6.9,6.9,81,0.00,CLR,,0.21,WeatherDisplay:10.37,2013-02-02 22:49:00,
2013-02-02 16:54:00,81.2,74.4,29.96,NW,321,4.6,4.6,80,0.00,CLR,,0.21,WeatherDisplay:10.37,2013-02-02 22:54:00,
2013-02-02 16:59:00,80.8,74.0,29.96,NNE,19,5.8,5.8,80,0.00,CLR,,0.21,WeatherDisplay:10.37,2013-02-02 22:59:00,
2013-02-02 17:04:00,80.7,74.3,29.96,NNE,27,6.9,6.9,81,0.00,CLR,,0.21,WeatherDisplay:10.37,2013-02-02 23:04:00,
2013-02-02 17:09:00,80.7,74.3,29.96,ENE,58,8.1,8.1,81,0.00,CLR,,0.21,WeatherDisplay:10.37,2013-02-02 23:09:00,
2013-02-02 17:14:00,80.6,74.2,29.96,North,352,6.9,6.9,81,0.00,CLR,,0.21,WeatherDisplay:10.37,2013-02-02 23:14:00,
2013-02-02 17:19:00,80.4,74.4,29.96,NNE,26,4.6,4.6,82,0.00,CLR,,0.21,WeatherDisplay:10.37,2013-02-02 23:19:00,
2013-02-02 17:24:00,80.1,74.1,29.97,North,11,9.2,9.2,82,0.00,CLR,,0.21,WeatherDisplay:10.37,2013-02-02 23:24:00,
2013-02-02 17:29:00,79.9,74.3,29.97,NE,35,3.5,3.5,83,0.00,CLR,,0.21,WeatherDisplay:10.37,2013-02-02 23:29:00,
2013-02-02 17:34:00,79.8,74.2,29.97,NE,43,7.0,7.0,83,0.00,CLR,,0.21,WeatherDisplay:10.37,2013-02-02 23:34:00,
2013-02-02 17:39:00,79.7,73.7,29.97,ENE,72,7.0,7.0,82,0.00,CLR,,0.21,WeatherDisplay:10.37,2013-02-02 23:39:00,
2013-02-02 17:44:00,79.7,73.7,29.97,NNE,15,5.0,5.0,82,0.00,CLR,,0.21,WeatherDisplay:10.37,2013-02-02 23:44:00,
2013-02-02 17:49:00,79.6,73.6,29.97,North,10,8.1,8.1,82,0.00,CLR,,0.21,WeatherDisplay:10.37,2013-02-02 23:49:00,
2013-02-02 17:54:00,79.5,73.5,29.97,ENE,74,8.1,8.1,82,0.00,CLR,,0.21,WeatherDisplay:10.37,2013-02-02 23:54:00,
2013-02-02 17:59:00,79.6,74.0,29.97,NNE,20,5.8,5.8,83,0.00,CLR,,0.21,WeatherDisplay:10.37,2013-02-02 23:59:00,
2013-02-02 18:04:00,79.6,74.0,29.97,NNE,12,5.8,5.8,83,0.00,CLR,,0.21,WeatherDisplay:10.37,2013-02-03 00:04:00,
2013-02-02 18:09:00,79.5,73.9,29.98,NNE,22,6.9,6.9,83,0.00,CLR,,0.21,WeatherDisplay:10.37,2013-02-03 00:09:00,
2013-02-02 18:14:00,79.5,73.9,29.98,NNE,31,4.0,4.0,83,0.00,CLR,,0.21,WeatherDisplay:10.37,2013-02-03 00:14:00,
2013-02-02 18:19:00,79.4,73.8,29.98,NNE,25,2.3,2.3,83,0.00,CLR,,0.21,WeatherDisplay:10.37,2013-02-03 00:19:00,
2013-02-02 18:24:00,79.3,74.0,29.98,NNE,21,4.0,4.0,84,0.00,CLR,,0.21,WeatherDisplay:10.37,2013-02-03 00:24:00,
2013-02-02 18:29:00,79.1,73.5,29.98,NNE,30,6.0,6.0,83,0.00,CLR,,0.21,WeatherDisplay:10.37,2013-02-03 00:29:00,
2013-02-02 18:34:00,79.1,73.5,29.98,NNE,13,6.9,6.9,83,0.00,CLR,,0.21,WeatherDisplay:10.37,2013-02-03 00:34:00,
2013-02-02 18:39:00,79.0,73.4,29.99,NE,41,6.9,6.9,83,0.00,CLR,,0.21,WeatherDisplay:10.37,2013-02-03 00:39:00,
2013-02-02 18:44:00,79.0,73.4,29.99,ENE,67,3.5,3.5,83,0.00,CLR,,0.21,WeatherDisplay:10.37,2013-02-03 00:44:00,
2013-02-02 18:49:00,79.0,73.4,29.99,NE,54,4.6,4.6,83,0.00,CLR,,0.21,WeatherDisplay:10.37,2013-02-03 00:49:00,
2013-02-02 18:54:00,79.0,73.4,29.99,North,360,5.8,5.8,83,0.00,CLR,,0.21,WeatherDisplay:10.37,2013-02-03 00:54:00,
2013-02-02 18:59:00,79.0,73.4,29.99,NW,318,4.6,4.6,83,0.00,CLR,,0.21,WeatherDisplay:10.37,2013-02-03 00:59:00,
2013-02-02 19:04:00,78.9,73.7,29.99,NNE,27,8.1,8.1,84,0.00,CLR,,0.21,WeatherDisplay:10.37,2013-02-03 01:04:00,
2013-02-02 19:09:00,78.9,73.7,30.00,ENE,69,2.3,2.3,84,0.00,CLR,,0.21,WeatherDisplay:10.37,2013-02-03 01:09:00,
2013-02-02 19:14:00,78.8,73.6,30.00,NNE,15,5.8,5.8,84,0.00,CLR,,0.21,WeatherDisplay:10.37,2013-02-03 01:14:00,
2013-02-02 19:19:00,78.7,73.5,30.00,NE,41,6.9,6.9,84,0.00,CLR,,0.21,WeatherDisplay:10.37,2013-02-03 01:19:00,
2013-02-02 19:24:00,78.7,73.5,30.00,NNE,32,8.1,8.1,84,0.00,CLR,,0.21,WeatherDisplay:10.37,2013-02-03 01:24:00,
2013-02-02 19:29:00,78.6,73.4,30.00,NE,42,5.8,5.8,84,0.00,CLR,,0.21,WeatherDisplay:10.37,2013-02-03 01:29:00,
2013-02-02 19:34:00,78.6,73.7,30.01,NNE,18,4.6,4.6,85,0.00,CLR,,0.21,WeatherDisplay:10.37,2013-02-03 01:34:00,
2013-02-02 19:39:00,78.6,73.7,30.01,ENE,75,6.9,6.9,85,0.00,CLR,,0.21,WeatherDisplay:10.37,2013-02-03 01:39:00,
2013-02-02 19:44:00,78.6,73.7,30.01,ENE,58,4.6,4.6,85,0.00,CLR,,0.21,WeatherDisplay:10.37,2013-02-03 01:44:00,
2013-02-02 19:49:00,78.6,73.7,30.01,NE,53,6.0,6.0,85,0.00,CLR,,0.21,WeatherDisplay:10.37,2013-02-03 01:49:00,
2013-02-02 19:54:00,78.5,73.6,30.01,NNE,12,8.1,8.1,85,0.00,CLR,,0.21,WeatherDisplay:10.37,2013-02-03 01:54:00,
2013-02-02 19:59:00,78.6,73.7,30.01,NNE,24,5.8,5.8,85,0.00,CLR,,0.21,WeatherDisplay:10.37,2013-02-03 01:59:00,
2013-02-02 20:04:00,78.6,73.7,30.01,ENE,74,6.0,6.0,85,0.00,CLR,,0.21,WeatherDisplay:10.37,2013-02-03 02:04:00,
2013-02-02 20:09:00,78.5,73.6,30.01,NNE,22,5.8,5.8,85,0.00,CLR,,0.21,WeatherDisplay:10.37,2013-02-03 02:09:00,
2013-02-02 20:14:00,78.5,73.6,30.01,NE,44,8.1,8.1,85,0.00,CLR,,0.21,WeatherDisplay:10.37,2013-02-03 02:14:00,
2013-02-02 20:19:00,78.5,73.6,30.01,NE,55,6.9,6.9,85,0.00,CLR,,0.21,WeatherDisplay:10.37,2013-02-03 02:19:00,
2013-02-02 20:24:00,78.5,73.6,30.02,ENE,58,6.0,6.0,85,0.00,CLR,,0.21,WeatherDisplay:10.37,2013-02-03 02:24:00,
2013-02-02 20:29:00,78.5,73.6,30.02,NNE,15,6.9,6.9,85,0.00,CLR,,0.21,WeatherDisplay:10.37,2013-02-03 02:29:00,
2013-02-02 20:34:00,78.5,73.6,30.02,NW,316,6.9,6.9,85,0.00,CLR,,0.21,WeatherDisplay:10.37,2013-02-03 02:34:00,
2013-02-02 20:39:00,78.5,73.6,30.02,NNE,31,5.8,5.8,85,0.00,CLR,,0.21,WeatherDisplay:10.37,2013-02-03 02:39:00,
2013-02-02 20:44:00,78.4,73.5,30.02,NE,51,4.6,4.6,85,0.00,CLR,,0.21,WeatherDisplay:10.37,2013-02-03 02:44:00,
2013-02-02 20:49:00,78.4,73.5,30.02,ENE,64,3.5,4.1,85,0.00,CLR,,0.21,WeatherDisplay:10.37,2013-02-03 02:49:00,
2013-02-02 20:54:00,78.4,73.5,30.03,NE,38,6.9,6.9,85,0.00,CLR,,0.21,WeatherDisplay:10.37,2013-02-03 02:54:00,
2013-02-02 20:59:00,78.4,73.5,30.03,ENE,64,9.0,9.0,85,0.00,CLR,,0.21,WeatherDisplay:10.37,2013-02-03 02:59:00,
2013-02-02 21:04:00,78.3,73.4,30.03,NNE,15,8.0,8.0,85,0.00,CLR,,0.21,WeatherDisplay:10.37,2013-02-03 03:04:00,
2013-02-02 21:09:00,78.4,73.5,30.03,NNE,21,4.6,4.6,85,0.00,CLR,,0.21,WeatherDisplay:10.37,2013-02-03 03:09:00,
2013-02-02 21:14:00,78.4,73.5,30.03,NNE,24,6.9,6.9,85,0.00,CLR,,0.21,WeatherDisplay:10.37,2013-02-03 03:14:00,
2013-02-02 21:20:00,78.4,73.5,30.03,NE,54,6.9,6.9,85,0.00,CLR,,0.21,WeatherDisplay:10.37,2013-02-03 03:20:00,
2013-02-02 21:25:00,78.5,73.6,30.04,NE,39,5.8,5.8,85,0.00,CLR,,0.21,WeatherDisplay:10.37,2013-02-03 03:25:00,
2013-02-02 21:30:00,78.5,73.6,30.04,NE,49,5.8,5.8,85,0.00,CLR,,0.21,WeatherDisplay:10.37,2013-02-03 03:30:00,
2013-02-02 21:35:00,78.4,73.5,30.04,NE,46,6.9,6.9,85,0.00,CLR,,0.21,WeatherDisplay:10.37,2013-02-03 03:35:00,
2013-02-02 21:40:00,78.3,73.4,30.04,NE,53,5.8,5.8,85,0.00,CLR,,0.21,WeatherDisplay:10.37,2013-02-03 03:40:00,
2013-02-02 21:45:00,78.3,73.4,30.04,ENE,61,5.8,5.8,85,0.00,CLR,,0.21,WeatherDisplay:10.37,2013-02-03 03:45:00,
2013-02-02 21:50:00,78.3,73.4,30.03,NNE,13,5.8,5.8,85,0.00,CLR,,0.21,WeatherDisplay:10.37,2013-02-03 03:50:00,
2013-02-02 21:55:00,78.3,73.4,30.03,NNE,22,6.0,6.0,85,0.00,CLR,,0.21,WeatherDisplay:10.37,2013-02-03 03:55:00,
2013-02-02 22:00:00,78.3,73.8,30.04,NE,34,6.9,6.9,86,0.00,CLR,,0.21,WeatherDisplay:10.37,2013-02-03 04:00:00,
2013-02-02 22:05:00,78.2,73.3,30.03,NE,39,7.0,7.0,85,0.00,CLR,,0.21,WeatherDisplay:10.37,2013-02-03 04:05:00,
2013-02-02 22:10:00,78.3,73.4,30.03,NE,37,6.0,6.0,85,0.00,CLR,,0.21,WeatherDisplay:10.37,2013-02-03 04:10:00,
2013-02-02 22:15:00,78.3,73.4,30.03,NE,41,5.8,5.8,85,0.00,CLR,,0.21,WeatherDisplay:10.37,2013-02-03 04:15:00,
2013-02-02 22:20:00,78.3,73.8,30.03,NNE,27,5.8,5.8,86,0.00,CLR,,0.21,WeatherDisplay:10.37,2013-02-03 04:20:00,
2013-02-02 22:25:00,78.2,73.7,30.03,ENE,57,3.5,4.1,86,0.00,CLR,,0.21,WeatherDisplay:10.37,2013-02-03 04:25:00,
2013-02-02 22:30:00,78.2,73.7,30.03,ENE,65,5.8,5.8,86,0.00,CLR,,0.21,WeatherDisplay:10.37,2013-02-03 04:30:00,
2013-02-02 22:35:00,78.2,73.7,30.03,NE,49,2.0,6.0,86,0.00,CLR,,0.21,WeatherDisplay:10.37,2013-02-03 04:35:00,
2013-02-02 22:40:00,78.1,73.6,30.03,ENE,63,6.9,6.9,86,0.00,CLR,,0.21,WeatherDisplay:10.37,2013-02-03 04:40:00,
2013-02-02 22:45:00,78.1,73.6,30.03,NNE,22,7.0,7.0,86,0.00,CLR,,0.21,WeatherDisplay:10.37,2013-02-03 04:45:00,
2013-02-02 22:50:00,78.1,73.6,30.02,NE,37,5.8,5.8,86,0.00,CLR,,0.21,WeatherDisplay:10.37,2013-02-03 04:50:00,
2013-02-02 22:55:00,78.0,73.5,30.02,NE,37,4.6,4.6,86,0.00,CLR,,0.21,WeatherDisplay:10.37,2013-02-03 04:55:00,
2013-02-02 23:00:00,78.0,73.5,30.02,NE,35,2.0,6.0,86,0.00,CLR,,0.21,WeatherDisplay:10.37,2013-02-03 05:00:00,
2013-02-02 23:02:00,77.9,73.4,30.02,NNE,25,6.0,6.0,86,0.00,CLR,,0.21,WeatherDisplay:10.37,2013-02-03 05:02:00,
2013-02-02 23:03:00,77.9,73.4,30.02,NNE,14,5.8,5.8,86,0.00,CLR,,0.21,WeatherDisplay:10.37,2013-02-03 05:03:00,
2013-02-02 23:08:00,77.9,73.4,30.02,NNE,23,6.9,6.9,86,0.00,CLR,,0.21,WeatherDisplay:10.37,2013-02-03 05:08:00,
2013-02-02 23:13:00,77.9,73.4,30.02,ENE,67,3.5,3.5,86,0.00,CLR,,0.21,WeatherDisplay:10.37,2013-02-03 05:13:00,
2013-02-02 23:18:00,77.9,73.4,30.01,NNE,19,4.0,4.0,86,0.00,CLR,,0.21,WeatherDisplay:10.37,2013-02-03 05:18:00,
2013-02-02 23:23:00,77.9,73.7,30.01,NNW,345,3.5,3.5,87,0.00,CLR,,0.21,WeatherDisplay:10.37,2013-02-03 05:23:00,
2013-02-02 23:28:00,77.8,73.6,30.01,NNE,30,1.1,1.1,87,0.00,CLR,,0.21,WeatherDisplay:10.37,2013-02-03 05:28:00,
2013-02-02 23:33:00,77.7,73.5,30.01,NE,55,4.0,4.0,87,0.00,CLR,,0.21,WeatherDisplay:10.37,2013-02-03 05:33:00,
2013-02-02 23:38:00,77.7,73.5,30.01,NW,314,3.5,3.5,87,0.00,CLR,,0.21,WeatherDisplay:10.37,2013-02-03 05:38:00,
2013-02-02 23:43:00,77.6,73.4,30.01,NE,37,2.3,2.3,87,0.00,CLR,,0.21,WeatherDisplay:10.37,2013-02-03 05:43:00,
2013-02-02 23:48:00,77.7,73.5,30.01,NE,47,4.0,4.0,87,0.00,CLR,,0.21,WeatherDisplay:10.37,2013-02-03 05:48:00,
2013-02-02 23:53:00,77.7,73.5,30.01,NE,56,4.6,4.6,87,0.00,CLR,,0.21,WeatherDisplay:10.37,2013-02-03 05:53:00,
2013-02-02 23:58:00,77.6,73.4,30.01,NE,45,3.5,3.5,87,0.00,CLR,,0.21,WeatherDisplay:10.37,2013-02-03 05:58:00,